sensor_id;sensor_type;location;lat;lon;timestamp;temperature;humidity
16479;DHT22;8350;52.316;10.530;2023-02-15T00:01:07;-1.40;99.90
16479;DHT22;8350;52.316;10.530;2023-02-15T00:03:36;-1.40;99.90
16479;DHT22;8350;52.316;10.530;2023-02-15T00:06:03;-1.40;99.90
16479;DHT22;8350;52.316;10.530;2023-02-15T00:08:31;-1.40;99.90
16479;DHT22;8350;52.316;10.530;2023-02-15T00:11:08;-1.30;99.90
16479;DHT22;8350;52.316;10.530;2023-02-15T00:13:35;-1.30;99.90
16479;DHT22;8350;52.316;10.530;2023-02-15T00:16:05;-1.30;99.90
16479;DHT22;8350;52.316;10.530;2023-02-15T00:18:33;-1.20;99.90
16479;DHT22;8350;52.316;10.530;2023-02-15T00:21:04;-1.20;99.90
16479;DHT22;8350;52.316;10.530;2023-02-15T00:23:47;-1.20;99.90
16479;DHT22;8350;52.316;10.530;2023-02-15T00:26:14;-1.30;99.90
16479;DHT22;8350;52.316;10.530;2023-02-15T00:28:40;-1.20;99.90
16479;DHT22;8350;52.316;10.530;2023-02-15T00:31:11;-1.20;99.90
16479;DHT22;8350;52.316;10.530;2023-02-15T00:33:39;-1.20;99.90
16479;DHT22;8350;52.316;10.530;2023-02-15T00:36:09;-1.10;99.90
16479;DHT22;8350;52.316;10.530;2023-02-15T00:38:36;-1.00;99.90
16479;DHT22;8350;52.316;10.530;2023-02-15T00:41:06;-0.90;99.90
16479;DHT22;8350;52.316;10.530;2023-02-15T00:43:34;-0.70;99.90
16479;DHT22;8350;52.316;10.530;2023-02-15T00:46:04;-0.50;99.90
16479;DHT22;8350;52.316;10.530;2023-02-15T00:48:31;-0.30;99.90
16479;DHT22;8350;52.316;10.530;2023-02-15T00:50:59;-0.10;99.90
16479;DHT22;8350;52.316;10.530;2023-02-15T00:53:28;0.00;99.90
16479;DHT22;8350;52.316;10.530;2023-02-15T00:55:55;0.10;99.90
16479;DHT22;8350;52.316;10.530;2023-02-15T00:58:22;0.20;99.90
16479;DHT22;8350;52.316;10.530;2023-02-15T01:00:52;0.30;99.90
16479;DHT22;8350;52.316;10.530;2023-02-15T01:03:19;0.30;99.90
16479;DHT22;8350;52.316;10.530;2023-02-15T01:05:48;0.40;99.90
16479;DHT22;8350;52.316;10.530;2023-02-15T01:08:15;0.40;99.90
16479;DHT22;8350;52.316;10.530;2023-02-15T01:10:44;0.30;99.90
16479;DHT22;8350;52.316;10.530;2023-02-15T01:13:13;0.30;99.90
16479;DHT22;8350;52.316;10.530;2023-02-15T01:15:53;0.30;99.90
16479;DHT22;8350;52.316;10.530;2023-02-15T01:18:19;0.20;99.90
16479;DHT22;8350;52.316;10.530;2023-02-15T01:20:46;0.10;99.90
16479;DHT22;8350;52.316;10.530;2023-02-15T01:23:13;0.10;99.90
16479;DHT22;8350;52.316;10.530;2023-02-15T01:25:40;0.10;99.90
16479;DHT22;8350;52.316;10.530;2023-02-15T01:28:08;0.00;99.90
16479;DHT22;8350;52.316;10.530;2023-02-15T01:30:35;0.00;99.90
16479;DHT22;8350;52.316;10.530;2023-02-15T01:33:02;0.00;99.90
16479;DHT22;8350;52.316;10.530;2023-02-15T01:35:29;0.00;99.90
16479;DHT22;8350;52.316;10.530;2023-02-15T01:37:56;0.00;99.90
16479;DHT22;8350;52.316;10.530;2023-02-15T01:40:24;0.10;99.90
16479;DHT22;8350;52.316;10.530;2023-02-15T01:42:51;0.00;99.90
16479;DHT22;8350;52.316;10.530;2023-02-15T01:45:25;0.00;99.90
16479;DHT22;8350;52.316;10.530;2023-02-15T01:47:57;0.00;99.90
16479;DHT22;8350;52.316;10.530;2023-02-15T01:50:29;0.00;99.90
16479;DHT22;8350;52.316;10.530;2023-02-15T01:53:06;-0.10;99.90
16479;DHT22;8350;52.316;10.530;2023-02-15T01:55:42;-0.30;99.90
16479;DHT22;8350;52.316;10.530;2023-02-15T01:58:10;-0.30;99.90
16479;DHT22;8350;52.316;10.530;2023-02-15T02:00:39;-0.40;99.90
16479;DHT22;8350;52.316;10.530;2023-02-15T02:03:05;-0.60;99.90
16479;DHT22;8350;52.316;10.530;2023-02-15T02:05:33;-0.80;99.90
16479;DHT22;8350;52.316;10.530;2023-02-15T02:08:03;-0.80;99.90
16479;DHT22;8350;52.316;10.530;2023-02-15T02:10:30;-1.00;99.90
16479;DHT22;8350;52.316;10.530;2023-02-15T02:12:59;-1.20;99.90
16479;DHT22;8350;52.316;10.530;2023-02-15T02:15:32;-1.30;99.90
16479;DHT22;8350;52.316;10.530;2023-02-15T02:18:13;-1.30;99.90
16479;DHT22;8350;52.316;10.530;2023-02-15T02:20:58;-1.30;99.90
16479;DHT22;8350;52.316;10.530;2023-02-15T02:23:38;-1.40;99.90
16479;DHT22;8350;52.316;10.530;2023-02-15T02:26:40;-1.40;99.90
16479;DHT22;8350;52.316;10.530;2023-02-15T02:29:37;-1.30;99.90
16479;DHT22;8350;52.316;10.530;2023-02-15T02:35:18;-1.20;99.90
16479;DHT22;8350;52.316;10.530;2023-02-15T02:37:54;-1.20;99.90
16479;DHT22;8350;52.316;10.530;2023-02-15T02:40:30;-1.20;99.90
16479;DHT22;8350;52.316;10.530;2023-02-15T02:43:02;-1.20;99.90
16479;DHT22;8350;52.316;10.530;2023-02-15T02:45:35;-1.30;99.90
16479;DHT22;8350;52.316;10.530;2023-02-15T02:48:10;-1.40;99.90
16479;DHT22;8350;52.316;10.530;2023-02-15T02:50:41;-1.30;99.90
16479;DHT22;8350;52.316;10.530;2023-02-15T02:53:09;-1.20;99.90
16479;DHT22;8350;52.316;10.530;2023-02-15T02:55:44;-1.20;99.90
16479;DHT22;8350;52.316;10.530;2023-02-15T02:58:16;-1.00;99.90
16479;DHT22;8350;52.316;10.530;2023-02-15T03:00:46;-0.80;99.90
16479;DHT22;8350;52.316;10.530;2023-02-15T03:03:18;-0.80;99.90
16479;DHT22;8350;52.316;10.530;2023-02-15T03:05:50;-0.70;99.90
16479;DHT22;8350;52.316;10.530;2023-02-15T03:08:20;-0.70;99.90
16479;DHT22;8350;52.316;10.530;2023-02-15T03:10:55;-0.70;99.90
16479;DHT22;8350;52.316;10.530;2023-02-15T03:13:23;-0.60;99.90
16479;DHT22;8350;52.316;10.530;2023-02-15T03:15:52;-0.50;99.90
16479;DHT22;8350;52.316;10.530;2023-02-15T03:18:40;-0.40;99.90
16479;DHT22;8350;52.316;10.530;2023-02-15T03:21:11;-0.40;99.90
16479;DHT22;8350;52.316;10.530;2023-02-15T03:23:49;-0.40;99.90
16479;DHT22;8350;52.316;10.530;2023-02-15T03:26:20;-0.30;99.90
16479;DHT22;8350;52.316;10.530;2023-02-15T03:28:49;-0.30;99.90
16479;DHT22;8350;52.316;10.530;2023-02-15T03:31:23;-0.40;99.90
16479;DHT22;8350;52.316;10.530;2023-02-15T03:33:53;-0.40;99.90
16479;DHT22;8350;52.316;10.530;2023-02-15T03:36:28;-0.40;99.90
16479;DHT22;8350;52.316;10.530;2023-02-15T03:39:07;-0.50;99.90
16479;DHT22;8350;52.316;10.530;2023-02-15T03:41:40;-0.50;99.90
16479;DHT22;8350;52.316;10.530;2023-02-15T03:44:12;-0.50;99.90
16479;DHT22;8350;52.316;10.530;2023-02-15T03:46:45;-0.60;99.90
16479;DHT22;8350;52.316;10.530;2023-02-15T03:49:17;-0.60;99.90
16479;DHT22;8350;52.316;10.530;2023-02-15T03:51:48;-0.60;99.90
16479;DHT22;8350;52.316;10.530;2023-02-15T03:54:18;-0.60;99.90
16479;DHT22;8350;52.316;10.530;2023-02-15T03:57:17;-0.50;99.90
16479;DHT22;8350;52.316;10.530;2023-02-15T04:00:06;-0.60;99.90
16479;DHT22;8350;52.316;10.530;2023-02-15T04:03:05;-0.70;99.90
16479;DHT22;8350;52.316;10.530;2023-02-15T04:05:33;-0.80;99.90
16479;DHT22;8350;52.316;10.530;2023-02-15T04:08:02;-0.90;99.90
16479;DHT22;8350;52.316;10.530;2023-02-15T04:10:29;-1.10;99.90
16479;DHT22;8350;52.316;10.530;2023-02-15T04:13:13;-1.40;99.90
16479;DHT22;8350;52.316;10.530;2023-02-15T04:15:40;-1.80;99.90
16479;DHT22;8350;52.316;10.530;2023-02-15T04:18:24;-2.00;99.90
16479;DHT22;8350;52.316;10.530;2023-02-15T04:21:08;-2.20;99.90
16479;DHT22;8350;52.316;10.530;2023-02-15T04:23:54;-2.30;99.90
16479;DHT22;8350;52.316;10.530;2023-02-15T04:26:38;-2.40;99.90
16479;DHT22;8350;52.316;10.530;2023-02-15T04:29:05;-2.50;99.90
16479;DHT22;8350;52.316;10.530;2023-02-15T04:31:32;-2.50;99.90
16479;DHT22;8350;52.316;10.530;2023-02-15T04:33:59;-2.60;99.90
16479;DHT22;8350;52.316;10.530;2023-02-15T04:36:26;-2.60;99.90
16479;DHT22;8350;52.316;10.530;2023-02-15T04:38:54;-2.70;99.90
16479;DHT22;8350;52.316;10.530;2023-02-15T04:41:21;-2.70;99.90
16479;DHT22;8350;52.316;10.530;2023-02-15T04:46:17;-2.80;99.90
16479;DHT22;8350;52.316;10.530;2023-02-15T04:48:44;-2.80;99.90
16479;DHT22;8350;52.316;10.530;2023-02-15T04:51:11;-2.80;99.90
16479;DHT22;8350;52.316;10.530;2023-02-15T04:53:37;-2.70;99.90
16479;DHT22;8350;52.316;10.530;2023-02-15T04:56:06;-2.70;99.90
16479;DHT22;8350;52.316;10.530;2023-02-15T04:58:32;-2.80;99.90
16479;DHT22;8350;52.316;10.530;2023-02-15T05:01:00;-2.80;99.90
16479;DHT22;8350;52.316;10.530;2023-02-15T05:03:27;-2.90;99.90
16479;DHT22;8350;52.316;10.530;2023-02-15T05:05:54;-2.90;99.90
16479;DHT22;8350;52.316;10.530;2023-02-15T05:08:21;-2.90;99.90
16479;DHT22;8350;52.316;10.530;2023-02-15T05:10:48;-3.00;99.90
16479;DHT22;8350;52.316;10.530;2023-02-15T05:13:16;-3.00;99.90
16479;DHT22;8350;52.316;10.530;2023-02-15T05:15:47;-3.00;99.90
16479;DHT22;8350;52.316;10.530;2023-02-15T05:18:15;-3.00;99.90
16479;DHT22;8350;52.316;10.530;2023-02-15T05:20:42;-3.00;99.90
16479;DHT22;8350;52.316;10.530;2023-02-15T05:23:09;-3.00;99.90
16479;DHT22;8350;52.316;10.530;2023-02-15T05:25:36;-3.00;99.90
16479;DHT22;8350;52.316;10.530;2023-02-15T05:28:22;-3.00;99.90
16479;DHT22;8350;52.316;10.530;2023-02-15T05:30:51;-2.90;99.90
16479;DHT22;8350;52.316;10.530;2023-02-15T05:33:24;-2.80;99.90
16479;DHT22;8350;52.316;10.530;2023-02-15T05:35:51;-2.80;99.90
16479;DHT22;8350;52.316;10.530;2023-02-15T05:38:18;-2.80;99.90
16479;DHT22;8350;52.316;10.530;2023-02-15T05:40:44;-2.70;99.90
16479;DHT22;8350;52.316;10.530;2023-02-15T05:43:11;-2.70;99.90
16479;DHT22;8350;52.316;10.530;2023-02-15T05:45:39;-2.70;99.90
16479;DHT22;8350;52.316;10.530;2023-02-15T05:48:06;-2.80;99.90
16479;DHT22;8350;52.316;10.530;2023-02-15T05:50:33;-2.80;99.90
16479;DHT22;8350;52.316;10.530;2023-02-15T05:52:59;-2.70;99.90
16479;DHT22;8350;52.316;10.530;2023-02-15T05:55:26;-2.70;99.90
16479;DHT22;8350;52.316;10.530;2023-02-15T05:57:53;-2.70;99.90
16479;DHT22;8350;52.316;10.530;2023-02-15T06:00:20;-2.70;99.90
16479;DHT22;8350;52.316;10.530;2023-02-15T06:02:48;-2.70;99.90
16479;DHT22;8350;52.316;10.530;2023-02-15T06:05:15;-2.70;99.90
16479;DHT22;8350;52.316;10.530;2023-02-15T06:07:43;-2.80;99.90
16479;DHT22;8350;52.316;10.530;2023-02-15T06:10:10;-2.90;99.90
16479;DHT22;8350;52.316;10.530;2023-02-15T06:12:37;-3.00;99.90
16479;DHT22;8350;52.316;10.530;2023-02-15T06:15:04;-3.00;99.90
16479;DHT22;8350;52.316;10.530;2023-02-15T06:17:31;-3.10;99.90
16479;DHT22;8350;52.316;10.530;2023-02-15T06:19:59;-3.20;99.90
16479;DHT22;8350;52.316;10.530;2023-02-15T06:22:26;-3.20;99.90
16479;DHT22;8350;52.316;10.530;2023-02-15T06:24:53;-3.30;99.90
16479;DHT22;8350;52.316;10.530;2023-02-15T06:27:19;-3.30;99.90
16479;DHT22;8350;52.316;10.530;2023-02-15T06:29:48;-3.30;99.90
16479;DHT22;8350;52.316;10.530;2023-02-15T06:32:15;-3.20;99.90
16479;DHT22;8350;52.316;10.530;2023-02-15T06:34:42;-3.20;99.90
16479;DHT22;8350;52.316;10.530;2023-02-15T06:37:10;-3.10;99.90
16479;DHT22;8350;52.316;10.530;2023-02-15T06:39:37;-3.10;99.90
16479;DHT22;8350;52.316;10.530;2023-02-15T06:42:04;-3.10;99.90
16479;DHT22;8350;52.316;10.530;2023-02-15T06:44:31;-3.10;99.90
16479;DHT22;8350;52.316;10.530;2023-02-15T06:46:57;-3.20;99.90
16479;DHT22;8350;52.316;10.530;2023-02-15T06:49:24;-3.20;99.90
16479;DHT22;8350;52.316;10.530;2023-02-15T06:51:51;-3.20;99.90
16479;DHT22;8350;52.316;10.530;2023-02-15T06:54:22;-3.30;99.90
16479;DHT22;8350;52.316;10.530;2023-02-15T06:56:49;-3.30;99.90
16479;DHT22;8350;52.316;10.530;2023-02-15T06:59:15;-3.20;99.90
16479;DHT22;8350;52.316;10.530;2023-02-15T07:01:42;-3.10;99.90
16479;DHT22;8350;52.316;10.530;2023-02-15T07:04:09;-3.00;99.90
16479;DHT22;8350;52.316;10.530;2023-02-15T07:06:36;-2.90;99.90
16479;DHT22;8350;52.316;10.530;2023-02-15T07:09:03;-2.80;99.90
16479;DHT22;8350;52.316;10.530;2023-02-15T07:11:31;-2.50;99.90
16479;DHT22;8350;52.316;10.530;2023-02-15T07:14:15;-2.10;99.90
16479;DHT22;8350;52.316;10.530;2023-02-15T07:16:43;-1.70;99.90
16479;DHT22;8350;52.316;10.530;2023-02-15T07:19:10;-1.60;99.90
16479;DHT22;8350;52.316;10.530;2023-02-15T07:21:37;-1.40;99.90
16479;DHT22;8350;52.316;10.530;2023-02-15T07:24:04;-1.30;99.90
16479;DHT22;8350;52.316;10.530;2023-02-15T07:26:33;-1.30;99.90
16479;DHT22;8350;52.316;10.530;2023-02-15T07:28:59;-1.20;99.90
16479;DHT22;8350;52.316;10.530;2023-02-15T07:31:26;-1.10;99.90
16479;DHT22;8350;52.316;10.530;2023-02-15T07:33:53;-1.00;99.90
16479;DHT22;8350;52.316;10.530;2023-02-15T07:36:20;-0.80;99.90
16479;DHT22;8350;52.316;10.530;2023-02-15T07:38:47;-0.70;99.90
16479;DHT22;8350;52.316;10.530;2023-02-15T07:41:15;-0.80;99.90
16479;DHT22;8350;52.316;10.530;2023-02-15T07:43:45;-0.60;99.90
16479;DHT22;8350;52.316;10.530;2023-02-15T07:46:14;-0.40;99.90
16479;DHT22;8350;52.316;10.530;2023-02-15T07:48:42;-0.30;99.90
16479;DHT22;8350;52.316;10.530;2023-02-15T07:51:10;-0.20;99.90
16479;DHT22;8350;52.316;10.530;2023-02-15T07:53:38;-0.10;99.90
16479;DHT22;8350;52.316;10.530;2023-02-15T07:56:07;0.00;99.90
16479;DHT22;8350;52.316;10.530;2023-02-15T07:58:34;0.10;99.90
16479;DHT22;8350;52.316;10.530;2023-02-15T08:01:23;0.10;99.90
16479;DHT22;8350;52.316;10.530;2023-02-15T08:03:59;0.20;99.90
16479;DHT22;8350;52.316;10.530;2023-02-15T08:06:40;0.30;99.90
16479;DHT22;8350;52.316;10.530;2023-02-15T08:09:08;0.40;99.90
16479;DHT22;8350;52.316;10.530;2023-02-15T08:11:37;0.50;99.90
16479;DHT22;8350;52.316;10.530;2023-02-15T08:14:06;0.50;99.90
16479;DHT22;8350;52.316;10.530;2023-02-15T08:16:36;0.70;99.90
16479;DHT22;8350;52.316;10.530;2023-02-15T08:19:06;0.80;99.90
16479;DHT22;8350;52.316;10.530;2023-02-15T08:21:34;0.90;99.90
16479;DHT22;8350;52.316;10.530;2023-02-15T08:24:02;1.00;99.90
16479;DHT22;8350;52.316;10.530;2023-02-15T08:26:30;1.10;99.90
16479;DHT22;8350;52.316;10.530;2023-02-15T08:28:57;1.10;99.90
16479;DHT22;8350;52.316;10.530;2023-02-15T08:31:25;1.20;99.90
16479;DHT22;8350;52.316;10.530;2023-02-15T08:33:54;1.20;99.90
16479;DHT22;8350;52.316;10.530;2023-02-15T08:36:26;1.30;99.90
16479;DHT22;8350;52.316;10.530;2023-02-15T08:38:54;1.40;99.90
16479;DHT22;8350;52.316;10.530;2023-02-15T08:41:22;1.60;99.90
16479;DHT22;8350;52.316;10.530;2023-02-15T08:43:51;1.60;99.90
16479;DHT22;8350;52.316;10.530;2023-02-15T08:46:20;1.70;99.90
16479;DHT22;8350;52.316;10.530;2023-02-15T08:48:48;1.80;99.90
16479;DHT22;8350;52.316;10.530;2023-02-15T08:51:17;1.80;99.90
16479;DHT22;8350;52.316;10.530;2023-02-15T08:53:46;1.90;99.90
16479;DHT22;8350;52.316;10.530;2023-02-15T08:56:21;2.00;99.90
16479;DHT22;8350;52.316;10.530;2023-02-15T08:58:50;2.20;99.90
16479;DHT22;8350;52.316;10.530;2023-02-15T09:01:19;2.40;99.90
16479;DHT22;8350;52.316;10.530;2023-02-15T09:03:48;2.60;99.90
16479;DHT22;8350;52.316;10.530;2023-02-15T09:06:17;2.80;99.90
16479;DHT22;8350;52.316;10.530;2023-02-15T09:08:43;3.00;99.90
16479;DHT22;8350;52.316;10.530;2023-02-15T09:11:13;3.10;99.90
16479;DHT22;8350;52.316;10.530;2023-02-15T09:13:42;3.30;99.90
16479;DHT22;8350;52.316;10.530;2023-02-15T09:16:10;3.50;99.90
16479;DHT22;8350;52.316;10.530;2023-02-15T09:18:38;3.70;99.90
16479;DHT22;8350;52.316;10.530;2023-02-15T09:21:09;3.80;99.90
16479;DHT22;8350;52.316;10.530;2023-02-15T09:23:40;3.90;99.90
16479;DHT22;8350;52.316;10.530;2023-02-15T09:26:09;4.00;99.90
16479;DHT22;8350;52.316;10.530;2023-02-15T09:28:36;4.20;99.90
16479;DHT22;8350;52.316;10.530;2023-02-15T09:31:08;4.40;99.90
16479;DHT22;8350;52.316;10.530;2023-02-15T09:33:37;4.50;99.90
16479;DHT22;8350;52.316;10.530;2023-02-15T09:36:05;4.50;99.90
16479;DHT22;8350;52.316;10.530;2023-02-15T09:38:32;4.60;99.90
16479;DHT22;8350;52.316;10.530;2023-02-15T09:41:16;4.70;99.90
16479;DHT22;8350;52.316;10.530;2023-02-15T09:43:52;4.70;99.90
16479;DHT22;8350;52.316;10.530;2023-02-15T09:46:37;4.80;96.70
16479;DHT22;8350;52.316;10.530;2023-02-15T09:49:15;4.90;96.10
16479;DHT22;8350;52.316;10.530;2023-02-15T09:55:01;5.00;30.30
16479;DHT22;8350;52.316;10.530;2023-02-15T09:57:37;5.10;15.50
16479;DHT22;8350;52.316;10.530;2023-02-15T10:00:14;5.10;7.30
16479;DHT22;8350;52.316;10.530;2023-02-15T10:03:01;5.20;1.00
16479;DHT22;8350;52.316;10.530;2023-02-15T10:05:38;5.20;7.20
16479;DHT22;8350;52.316;10.530;2023-02-15T10:08:40;5.30;2.40
16479;DHT22;8350;52.316;10.530;2023-02-15T10:11:16;5.50;1.00
16479;DHT22;8350;52.316;10.530;2023-02-15T10:17:03;5.60;1.00
16479;DHT22;8350;52.316;10.530;2023-02-15T10:19:39;5.70;1.00
16479;DHT22;8350;52.316;10.530;2023-02-15T10:22:16;5.80;1.00
16479;DHT22;8350;52.316;10.530;2023-02-15T10:25:04;5.90;1.00
16479;DHT22;8350;52.316;10.530;2023-02-15T10:27:41;6.00;1.00
16479;DHT22;8350;52.316;10.530;2023-02-15T10:30:13;6.10;1.00
16479;DHT22;8350;52.316;10.530;2023-02-15T10:32:51;6.20;1.00
16479;DHT22;8350;52.316;10.530;2023-02-15T10:35:26;6.20;1.00
16479;DHT22;8350;52.316;10.530;2023-02-15T10:38:03;6.20;1.00
16479;DHT22;8350;52.316;10.530;2023-02-15T10:40:37;6.30;1.00
16479;DHT22;8350;52.316;10.530;2023-02-15T10:43:26;6.40;1.00
16479;DHT22;8350;52.316;10.530;2023-02-15T10:46:07;6.50;1.00
16479;DHT22;8350;52.316;10.530;2023-02-15T10:49:00;6.60;1.00
16479;DHT22;8350;52.316;10.530;2023-02-15T10:51:39;6.70;1.00
16479;DHT22;8350;52.316;10.530;2023-02-15T10:54:18;6.80;1.00
16479;DHT22;8350;52.316;10.530;2023-02-15T10:57:04;6.80;1.00
16479;DHT22;8350;52.316;10.530;2023-02-15T10:59:59;7.00;1.00
16479;DHT22;8350;52.316;10.530;2023-02-15T11:02:40;7.20;1.00
16479;DHT22;8350;52.316;10.530;2023-02-15T11:05:24;7.30;1.00
16479;DHT22;8350;52.316;10.530;2023-02-15T11:07:55;7.40;1.00
16479;DHT22;8350;52.316;10.530;2023-02-15T11:10:29;7.60;1.00
16479;DHT22;8350;52.316;10.530;2023-02-15T11:12:58;7.70;1.00
16479;DHT22;8350;52.316;10.530;2023-02-15T11:15:31;7.80;1.00
16479;DHT22;8350;52.316;10.530;2023-02-15T11:18:08;8.00;1.00
16479;DHT22;8350;52.316;10.530;2023-02-15T11:20:43;8.10;1.00
16479;DHT22;8350;52.316;10.530;2023-02-15T11:23:14;8.20;1.00
16479;DHT22;8350;52.316;10.530;2023-02-15T11:25:46;8.40;1.00
16479;DHT22;8350;52.316;10.530;2023-02-15T11:28:22;8.50;1.00
16479;DHT22;8350;52.316;10.530;2023-02-15T11:30:54;8.60;1.00
16479;DHT22;8350;52.316;10.530;2023-02-15T11:33:26;8.80;1.00
16479;DHT22;8350;52.316;10.530;2023-02-15T11:35:59;8.80;1.00
16479;DHT22;8350;52.316;10.530;2023-02-15T11:38:32;8.90;99.90
16479;DHT22;8350;52.316;10.530;2023-02-15T11:41:02;9.00;99.90
16479;DHT22;8350;52.316;10.530;2023-02-15T11:43:35;9.00;99.90
16479;DHT22;8350;52.316;10.530;2023-02-15T11:46:05;9.00;99.90
16479;DHT22;8350;52.316;10.530;2023-02-15T11:48:33;9.00;99.90
16479;DHT22;8350;52.316;10.530;2023-02-15T11:51:02;9.10;1.00
16479;DHT22;8350;52.316;10.530;2023-02-15T11:53:32;9.20;99.90
16479;DHT22;8350;52.316;10.530;2023-02-15T11:56:00;9.30;99.90
16479;DHT22;8350;52.316;10.530;2023-02-15T11:58:33;9.30;99.90
16479;DHT22;8350;52.316;10.530;2023-02-15T12:01:09;9.40;1.00
16479;DHT22;8350;52.316;10.530;2023-02-15T12:03:44;9.40;99.90
16479;DHT22;8350;52.316;10.530;2023-02-15T12:06:16;9.50;1.00
16479;DHT22;8350;52.316;10.530;2023-02-15T12:08:51;9.60;1.00
16479;DHT22;8350;52.316;10.530;2023-02-15T12:11:25;9.80;1.00
16479;DHT22;8350;52.316;10.530;2023-02-15T12:13:58;9.80;99.90
16479;DHT22;8350;52.316;10.530;2023-02-15T12:16:25;9.90;99.90
16479;DHT22;8350;52.316;10.530;2023-02-15T12:18:56;9.90;99.90
16479;DHT22;8350;52.316;10.530;2023-02-15T12:21:26;10.00;99.90
16479;DHT22;8350;52.316;10.530;2023-02-15T12:23:57;10.10;99.90
16479;DHT22;8350;52.316;10.530;2023-02-15T12:26:26;10.20;99.90
16479;DHT22;8350;52.316;10.530;2023-02-15T12:28:54;10.40;99.90
16479;DHT22;8350;52.316;10.530;2023-02-15T12:31:26;10.40;99.90
16479;DHT22;8350;52.316;10.530;2023-02-15T12:33:57;10.50;99.90
16479;DHT22;8350;52.316;10.530;2023-02-15T12:36:25;10.60;99.90
16479;DHT22;8350;52.316;10.530;2023-02-15T12:39:16;10.60;99.90
16479;DHT22;8350;52.316;10.530;2023-02-15T12:41:46;10.70;99.90
16479;DHT22;8350;52.316;10.530;2023-02-15T12:44:16;10.80;99.90
16479;DHT22;8350;52.316;10.530;2023-02-15T12:46:56;10.80;99.90
16479;DHT22;8350;52.316;10.530;2023-02-15T12:49:25;11.00;99.90
16479;DHT22;8350;52.316;10.530;2023-02-15T12:51:54;11.00;99.90
16479;DHT22;8350;52.316;10.530;2023-02-15T12:54:46;11.10;99.90
16479;DHT22;8350;52.316;10.530;2023-02-15T12:57:21;11.30;99.90
16479;DHT22;8350;52.316;10.530;2023-02-15T12:59:49;11.30;89.80
16479;DHT22;8350;52.316;10.530;2023-02-15T13:02:21;11.30;99.90
16479;DHT22;8350;52.316;10.530;2023-02-15T13:04:50;11.20;99.90
16479;DHT22;8350;52.316;10.530;2023-02-15T13:07:20;11.30;99.90
16479;DHT22;8350;52.316;10.530;2023-02-15T13:09:47;11.40;99.90
16479;DHT22;8350;52.316;10.530;2023-02-15T13:12:20;11.50;1.00
16479;DHT22;8350;52.316;10.530;2023-02-15T13:14:48;11.40;1.00
16479;DHT22;8350;52.316;10.530;2023-02-15T13:17:20;11.40;1.00
16479;DHT22;8350;52.316;10.530;2023-02-15T13:19:52;11.30;1.00
16479;DHT22;8350;52.316;10.530;2023-02-15T13:22:22;11.30;1.00
16479;DHT22;8350;52.316;10.530;2023-02-15T13:24:54;11.30;1.00
16479;DHT22;8350;52.316;10.530;2023-02-15T13:27:27;11.30;1.00
16479;DHT22;8350;52.316;10.530;2023-02-15T13:29:58;11.50;1.00
16479;DHT22;8350;52.316;10.530;2023-02-15T13:32:29;11.50;1.00
16479;DHT22;8350;52.316;10.530;2023-02-15T13:34:59;11.40;1.00
16479;DHT22;8350;52.316;10.530;2023-02-15T13:37:40;11.40;1.00
16479;DHT22;8350;52.316;10.530;2023-02-15T13:40:14;11.40;1.00
16479;DHT22;8350;52.316;10.530;2023-02-15T13:42:47;11.50;1.00
16479;DHT22;8350;52.316;10.530;2023-02-15T13:45:30;11.50;1.00
16479;DHT22;8350;52.316;10.530;2023-02-15T13:48:02;11.50;9.50
16479;DHT22;8350;52.316;10.530;2023-02-15T13:50:59;11.60;1.00
16479;DHT22;8350;52.316;10.530;2023-02-15T13:53:47;11.60;1.00
16479;DHT22;8350;52.316;10.530;2023-02-15T13:56:24;11.40;1.00
16479;DHT22;8350;52.316;10.530;2023-02-15T13:59:07;11.30;1.00
16479;DHT22;8350;52.316;10.530;2023-02-15T14:01:44;11.20;1.00
16479;DHT22;8350;52.316;10.530;2023-02-15T14:04:51;11.30;1.00
16479;DHT22;8350;52.316;10.530;2023-02-15T14:07:41;11.30;1.00
16479;DHT22;8350;52.316;10.530;2023-02-15T14:10:32;11.30;1.00
16479;DHT22;8350;52.316;10.530;2023-02-15T14:16:10;11.40;26.90
16479;DHT22;8350;52.316;10.530;2023-02-15T14:18:43;11.40;99.90
16479;DHT22;8350;52.316;10.530;2023-02-15T14:21:16;11.40;23.40
16479;DHT22;8350;52.316;10.530;2023-02-15T14:23:56;11.30;10.90
16479;DHT22;8350;52.316;10.530;2023-02-15T14:26:35;11.00;1.00
16479;DHT22;8350;52.316;10.530;2023-02-15T14:29:14;10.80;99.90
16479;DHT22;8350;52.316;10.530;2023-02-15T14:31:45;10.90;99.90
16479;DHT22;8350;52.316;10.530;2023-02-15T14:34:20;10.90;99.90
16479;DHT22;8350;52.316;10.530;2023-02-15T14:36:49;10.90;99.90
16479;DHT22;8350;52.316;10.530;2023-02-15T14:39:26;10.90;99.90
16479;DHT22;8350;52.316;10.530;2023-02-15T14:42:17;10.80;99.90
16479;DHT22;8350;52.316;10.530;2023-02-15T14:44:49;10.60;99.90
16479;DHT22;8350;52.316;10.530;2023-02-15T14:47:24;10.50;99.90
16479;DHT22;8350;52.316;10.530;2023-02-15T14:49:53;10.40;99.90
16479;DHT22;8350;52.316;10.530;2023-02-15T14:52:20;10.40;99.90
16479;DHT22;8350;52.316;10.530;2023-02-15T14:54:58;10.40;99.90
16479;DHT22;8350;52.316;10.530;2023-02-15T14:57:35;10.40;99.90
16479;DHT22;8350;52.316;10.530;2023-02-15T15:00:30;10.40;99.90
16479;DHT22;8350;52.316;10.530;2023-02-15T15:02:57;10.10;99.90
16479;DHT22;8350;52.316;10.530;2023-02-15T15:05:32;9.90;99.90
16479;DHT22;8350;52.316;10.530;2023-02-15T15:08:01;9.80;99.90
16479;DHT22;8350;52.316;10.530;2023-02-15T15:10:44;9.60;99.90
16479;DHT22;8350;52.316;10.530;2023-02-15T15:16:50;9.30;1.00
16479;DHT22;8350;52.316;10.530;2023-02-15T15:22:33;9.20;1.00
16479;DHT22;8350;52.316;10.530;2023-02-15T15:25:01;9.10;1.00
16479;DHT22;8350;52.316;10.530;2023-02-15T15:27:48;9.10;1.00
16479;DHT22;8350;52.316;10.530;2023-02-15T15:33:46;9.10;1.00
16479;DHT22;8350;52.316;10.530;2023-02-15T15:42:50;8.90;1.00
16479;DHT22;8350;52.316;10.530;2023-02-15T15:45:38;8.80;1.00
16479;DHT22;8350;52.316;10.530;2023-02-15T15:48:29;8.80;1.00
16479;DHT22;8350;52.316;10.530;2023-02-15T15:51:02;8.70;1.00
16479;DHT22;8350;52.316;10.530;2023-02-15T15:53:37;8.70;1.00
16479;DHT22;8350;52.316;10.530;2023-02-15T15:56:10;8.70;1.00
16479;DHT22;8350;52.316;10.530;2023-02-15T15:58:44;8.70;1.00
16479;DHT22;8350;52.316;10.530;2023-02-15T16:01:13;8.80;1.00
16479;DHT22;8350;52.316;10.530;2023-02-15T16:03:49;8.70;1.00
16479;DHT22;8350;52.316;10.530;2023-02-15T16:06:27;8.70;1.00
16479;DHT22;8350;52.316;10.530;2023-02-15T16:08:54;8.70;1.00
16479;DHT22;8350;52.316;10.530;2023-02-15T16:11:25;8.70;1.00
16479;DHT22;8350;52.316;10.530;2023-02-15T16:13:56;8.60;1.00
16479;DHT22;8350;52.316;10.530;2023-02-15T16:16:25;8.50;1.00
16479;DHT22;8350;52.316;10.530;2023-02-15T16:18:54;8.50;1.00
16479;DHT22;8350;52.316;10.530;2023-02-15T16:21:26;8.30;1.00
16479;DHT22;8350;52.316;10.530;2023-02-15T16:24:12;8.20;1.00
16479;DHT22;8350;52.316;10.530;2023-02-15T16:29:38;8.10;1.00
16479;DHT22;8350;52.316;10.530;2023-02-15T16:32:15;7.90;1.00
16479;DHT22;8350;52.316;10.530;2023-02-15T16:34:51;7.90;1.00
16479;DHT22;8350;52.316;10.530;2023-02-15T16:37:19;7.80;1.00
16479;DHT22;8350;52.316;10.530;2023-02-15T16:39:50;7.70;1.00
16479;DHT22;8350;52.316;10.530;2023-02-15T16:42:17;7.60;1.00
16479;DHT22;8350;52.316;10.530;2023-02-15T16:44:50;7.50;1.00
16479;DHT22;8350;52.316;10.530;2023-02-15T16:47:24;7.50;1.00